• Join FlightAware (Why Join?)
  • Login
  • US Flag 
12:08AM EDT


 

Airport Tracker/Info


-or-


 

Live Flight TrackerFlight Track Log ✈ N70RB ✈ 19-Jun-2013 ✈ 24C - KTVC

Flight Track Log - Related Links

Times and Time Zones

All times are in EDT time to prevent confusion due to time zone crossing. See the N70RB flight status page for this flight to view local times or setup timezone preferences in your user account.

Time Position Orientation Groundspeed Altitude Reporting Facility
EDT Latitude Longitude Course Direction KTS MPH feet Rate Location/Type
09:50PM 42.9158 -85.3706 355° North 147 169 5,500  Level Minneapolis Center
09:51PM 42.9561 -85.3692 North 147 169 5,500  Level Minneapolis Center
09:52PM 43.0050 -85.3669 North 147 169 5,500  Level Minneapolis Center
09:53PM 43.0447 -85.3639 North 146 168 5,500  Level Minneapolis Center
09:54PM 43.1722 -85.3723 355° North  Level Estimated
09:54PM 43.0853 -85.3631 North 146 168 5,500  Level Minneapolis Center
09:55PM 43.2085 -85.3770 355° North  Level Estimated
09:55PM 43.1247 -85.3608 North 144 166 5,500  Level Minneapolis Center
09:56PM 43.1644 -85.3583 North 144 166 5,500  Level Minneapolis Center
09:57PM 43.2039 -85.3572 North 143 165 5,500  Level Minneapolis Center
09:58PM 43.2447 -85.3569 360° North 145 167 5,500  Level Minneapolis Center
09:59PM 43.2936 -85.3539 North 146 168 5,500  Level Minneapolis Center
10:00PM 43.3336 -85.3511 North 146 168 5,500  Level Minneapolis Center
10:01PM 43.3736 -85.3483 North 144 166 5,500  Level Chicago Center
10:02PM 43.4131 -85.3450 North 144 166 5,500  Level Chicago Center
10:03PM 43.4597 -85.3439 North 140 161 5,500  Level Chicago Center
10:04PM 43.4975 -85.3514 352° North 138 159 5,500  Level Chicago Center
10:05PM 43.5347 -85.3592 351° North 136 157 5,500  Level Chicago Center
10:06PM 43.5725 -85.3692 349° North 138 159 5,500  Level Chicago Center
10:07PM 43.6025 -85.3756 351° North 138 159 5,500  Level Minneapolis Center
10:08PM 43.6469 -85.3856 351° North 136 157 5,500  Level Minneapolis Center
10:09PM 43.6847 -85.3931 352° North 137 158 5,500  Level Minneapolis Center
10:10PM 43.7225 -85.4011 351° North 138 159 5,500  Level Minneapolis Center
10:11PM 43.7614 -85.4089 352° North 140 161 5,500  Level Minneapolis Center
10:12PM 43.7994 -85.4183 350° North 140 161 5,500  Level Minneapolis Center
10:13PM 43.8394 -85.4233 355° North 143 165 5,500  Level Minneapolis Center
10:14PM 43.8872 -85.4278 356° North 144 166 5,500  Level Minneapolis Center
10:15PM 43.9269 -85.4331 355° North 144 166 5,500  Level Minneapolis Center
10:16PM 43.9675 -85.4372 356° North 146 168 5,500  Level Minneapolis Center
10:17PM 44.0081 -85.4403 357° North 146 168 5,500  Level Minneapolis Center
10:18PM 44.0481 -85.4461 354° North 145 167 5,500  Level Minneapolis Center
10:19PM 44.0942 -85.4497 357° North 147 169 5,500  Level Minneapolis Center
10:20PM 44.1342 -85.4531 357° North 146 168 5,500  Level Minneapolis Center
10:22PM 44.1747 -85.4581 355° North 146 168 5,500  Level Minneapolis Center
10:23PM 44.2150 -85.4625 355° North 145 167 5,500  Level Minneapolis Center
10:24PM 44.2558 -85.4667 356° North 146 168 5,500  Level Minneapolis Center
10:25PM 44.2953 -85.4692 357° North 144 166 5,500  Level Minneapolis Center
10:26PM 44.3361 -85.4736 356° North 146 168 5,500  Level Minneapolis Center
10:27PM 44.3853 -85.4764 358° North 147 169 5,500  Level Minneapolis Center
10:28PM 44.4256 -85.4819 354° North 147 169 5,500 -180 Level Minneapolis Center
10:29PM 44.4642 -85.4878 354° North 144 166 5,200 -420 Descending Minneapolis Center
10:30PM 44.5028 -85.4978 350° North 143 165 4,700 -480 Descending Minneapolis Center
10:31PM 44.5417 -85.5086 349° North 143 165 4,300 -540 Descending Minneapolis Center
10:32PM 44.5806 -85.5214 347° North 143 165 3,700 -780 Descending Minneapolis Center
10:33PM 44.6206 -85.5344 347° North 145 167 2,800 -900 Descending Minneapolis Center
10:35PM 44.6795 -85.5647 340° North  Level FlightAware Approximate
10:42PM 44.7333 -85.5667 North  Level FlightAware Approximate